RKSI/ICN METAR and TAF weather

Enter ICAO airport designator
Station Type Date Time Source
RKSI METAR 2020/03/29 11:30 UTC NOAA

RKSI 291130Z 28005KT CAVOK 07/01 Q1021 NOSIG


Station Type Date Time Source
RKSI Decoded METAR 2020/03/29 11:30 UTC NOAA

Incheon International Airport, Korea, South (RKSI) 37-28N 126-27E
Mar 29, 2020 - 07:30 AM EDT / 2020.03.29 1130 UTC
Wind: from the W (280 degrees) at 6 MPH (5 KT):0
Visibility: greater than 7 mile(s):0
Temperature: 44 F (7 C)
Dew Point: 33 F (1 C)
Relative Humidity: 65%
Pressure (altimeter): 30.15 in. Hg (1021 hPa)
ob: RKSI 291130Z 28005KT CAVOK 07/01 Q1021 NOSIG
cycle: 11

Station Type Date Time Source
RKSI TAF 2020/03/29 12:09 UTC NOAA

TAF RKSI 291100Z 2912/3018 29006KT CAVOK TN03/2921Z TX14/3006Z
BECMG 2914/2915 20005KT 6000 NSC
BECMG 3003/3004 27006KT CAVOK
BECMG 3014/3015 18005KT 6000 NSC

Example: see airport list